Time;durP1;ratioP1;P1;durP2;ratioP2;P2;SDS_P1;SDS_P2;PMS_P1;PMS_P2;Temp;Humidity;BMP_temperature;BMP_pressure;BME280_temperature;BME280_humidity;BME280_pressure;Samples;Min_cycle;Max_cycle;Signal;HPM_P1;HPM_P2
2022/06/16 00:02:14;;;;;;;10.13;6.97;;;;;;;-146.19;100.00;58918.88;5025000;28;20061;-43
2022/06/16 00:04:46;;;;;;;9.13;6.95;;;;;;;-146.19;100.00;58918.88;5024234;28;20088;-43
2022/06/16 00:07:17;;;;;;;11.85;6.50;;;;;;;-146.19;100.00;58918.88;5021008;28;20073;-46
2022/06/16 00:09:45;;;;;;;10.70;7.15;;;;;;;-146.19;100.00;58918.88;5026393;28;20060;-43
2022/06/16 00:12:14;;;;;;;9.57;7.30;;;;;;;-146.19;100.00;58918.88;5022064;28;20061;-43
2022/06/16 00:14:43;;;;;;;8.75;6.93;;;;;;;-146.19;100.00;58918.88;5026364;28;20143;-46
2022/06/16 00:17:11;;;;;;;9.43;6.53;;;;;;;-146.19;100.00;58918.88;5023957;28;20088;-52
2022/06/16 00:19:40;;;;;;;7.22;6.53;;;;;;;-146.19;100.00;58918.88;5026546;28;20065;-48
2022/06/16 00:22:08;;;;;;;7.60;6.80;;;;;;;-146.19;100.00;58918.88;5026978;28;20530;-48
2022/06/16 00:24:39;;;;;;;8.98;6.30;;;;;;;-146.19;100.00;58918.88;5022895;28;20069;-47
2022/06/16 00:27:08;;;;;;;6.57;5.88;;;;;;;-146.19;100.00;58918.88;5024462;28;20449;-46
2022/06/16 00:29:37;;;;;;;7.55;6.20;;;;;;;-146.19;100.00;58918.88;5029181;28;20084;-47
2022/06/16 00:32:06;;;;;;;7.75;6.88;;;;;;;-146.19;100.00;58918.88;5020264;28;20053;-44
2022/06/16 00:34:35;;;;;;;7.57;6.85;;;;;;;-146.19;100.00;58918.88;5031726;28;20065;-46
2022/06/16 00:37:04;;;;;;;9.25;7.00;;;;;;;-146.19;100.00;58918.88;5021301;28;20069;-47
2022/06/16 00:39:33;;;;;;;7.88;6.90;;;;;;;-146.19;100.00;58918.88;5024563;28;20519;-44
2022/06/16 00:42:09;;;;;;;8.70;6.30;;;;;;;-146.19;100.00;58918.88;5027795;28;20085;-45
2022/06/16 00:44:40;;;;;;;9.45;6.43;;;;;;;-146.19;100.00;58918.88;5022180;28;20438;-43
2022/06/16 00:47:09;;;;;;;8.13;6.70;;;;;;;-146.19;100.00;58918.88;5028014;28;20492;-46
2022/06/16 00:49:40;;;;;;;11.77;6.93;;;;;;;-146.19;100.00;58918.88;5026762;28;20065;-44
2022/06/16 00:52:12;;;;;;;8.70;7.13;;;;;;;-146.19;100.00;58918.88;5025092;28;20069;-46
2022/06/16 00:54:43;;;;;;;10.70;7.60;;;;;;;-146.19;100.00;58918.88;5031522;28;20065;-41
2022/06/16 00:57:14;;;;;;;;;;;;;;;-146.19;100.00;58918.88;5027860;28;20069;-47
2022/06/16 00:59:43;;;;;;;9.73;7.93;;;;;;;-146.19;100.00;58918.88;5031539;28;19952;-49
2022/06/16 01:02:18;;;;;;;11.27;7.88;;;;;;;-146.19;100.00;58918.88;5027398;28;20085;-46
2022/06/16 01:04:51;;;;;;;11.50;7.88;;;;;;;-146.19;100.00;58918.88;5029011;28;20436;-43
2022/06/16 01:07:24;;;;;;;9.20;7.45;;;;;;;-146.19;100.00;58918.88;5023438;28;20071;-45
2022/06/16 01:09:54;;;;;;;10.18;7.43;;;;;;;-146.19;100.00;58918.88;5017593;28;20065;-44
2022/06/16 01:15:46;;;;;;;11.68;8.80;;;;;;;-146.19;100.00;58918.88;5027503;28;20072;-43
2022/06/16 01:18:21;;;;;;;11.50;8.93;;;;;;;-146.19;100.00;58918.88;5024541;28;20053;-45
2022/06/16 01:20:54;;;;;;;12.18;8.18;;;;;;;-146.19;100.00;58918.88;5024463;28;20073;-43
2022/06/16 01:23:55;;;;;;;9.60;7.63;;;;;;;-146.19;100.00;58918.88;5025621;28;21332;-48
2022/06/16 01:26:46;;;;;;;10.75;8.15;;;;;;;-146.19;100.00;58918.88;5024039;28;20746;-43
2022/06/16 01:29:22;;;;;;;12.45;9.23;;;;;;;-146.19;100.00;58918.88;5022250;28;20061;-49
2022/06/16 01:31:55;;;;;;;13.93;9.05;;;;;;;-146.19;100.00;58918.88;5040469;28;20156;-44
2022/06/16 01:34:31;;;;;;;12.20;9.18;;;;;;;-146.19;100.00;58918.88;5023985;28;20065;-46
2022/06/16 01:37:04;;;;;;;12.32;9.35;;;;;;;-146.19;100.00;58918.88;5021417;28;20061;-46
2022/06/16 01:39:37;;;;;;;11.70;10.35;;;;;;;-146.19;100.00;58918.88;5022527;28;20072;-45
2022/06/16 01:42:11;;;;;;;11.98;9.90;;;;;;;-146.19;100.00;58918.88;5024238;28;20057;-48
2022/06/16 01:44:44;;;;;;;10.68;9.50;;;;;;;-146.19;100.00;58918.88;5027034;28;20077;-47
2022/06/16 01:47:15;;;;;;;11.13;9.13;;;;;;;-146.19;100.00;58918.88;5007398;28;21531;-43
2022/06/16 01:49:46;;;;;;;9.65;8.65;;;;;;;-146.19;100.00;58918.88;5005394;28;20054;-45
2022/06/16 01:52:18;;;;;;;9.77;8.10;;;;;;;-146.19;100.00;58918.88;5017122;28;20061;-43
2022/06/16 01:54:51;;;;;;;9.25;7.57;;;;;;;-146.19;100.00;58918.88;5019459;28;20114;-49
2022/06/16 01:57:25;;;;;;;8.43;7.53;;;;;;;-146.19;100.00;58918.88;5017280;28;20069;-46
2022/06/16 01:59:57;;;;;;;9.65;6.97;;;;;;;-146.19;100.00;58918.88;5020654;28;20100;-43
2022/06/16 02:02:28;;;;;;;9.95;7.55;;;;;;;-146.19;100.00;58918.88;5020765;28;20081;-45
2022/06/16 02:05:01;;;;;;;10.65;8.25;;;;;;;-146.19;100.00;58918.88;5022226;28;20068;-45
2022/06/16 02:07:34;;;;;;;8.90;8.00;;;;;;;-146.19;100.00;58918.88;5019358;28;20053;-53
2022/06/16 02:10:09;;;;;;;8.85;7.50;;;;;;;-146.19;100.00;58918.88;5018809;28;20090;-46
2022/06/16 02:15:33;;;;;;;9.43;8.43;;;;;;;-146.19;100.00;58918.88;5016195;28;20080;-45
2022/06/16 02:18:03;;;;;;;11.10;8.13;;;;;;;-146.19;100.00;58918.88;5021122;28;20569;-51
2022/06/16 02:20:38;;;;;;;12.15;8.77;;;;;;;-146.19;100.00;58918.88;5021344;28;20096;-43
2022/06/16 02:23:07;;;;;;;13.43;9.05;;;;;;;-146.19;100.00;58918.88;5019990;28;20069;-48
2022/06/16 02:25:35;;;;;;;11.00;9.10;;;;;;;-146.19;100.00;58918.88;5023993;28;20068;-45
2022/06/16 02:28:04;;;;;;;13.70;9.40;;;;;;;-146.19;100.00;58918.88;5018140;28;20555;-47
2022/06/16 02:30:41;;;;;;;10.82;9.45;;;;;;;-146.19;100.00;58918.88;5025364;28;20069;-46
2022/06/16 02:33:14;;;;;;;10.60;9.55;;;;;;;-146.19;100.00;58918.88;5015909;28;20053;-46
2022/06/16 02:35:47;;;;;;;11.63;9.95;;;;;;;-146.19;100.00;58918.88;5022162;28;20086;-46
2022/06/16 02:38:27;;;;;;;13.18;8.98;;;;;;;-146.19;100.00;58918.88;5019941;28;20448;-46
2022/06/16 02:41:06;;;;;;;11.35;9.00;;;;;;;-146.19;100.00;58918.88;5023010;28;20054;-46
2022/06/16 02:43:48;;;;;;;10.38;9.05;;;;;;;-146.19;100.00;58918.88;5020730;28;20065;-43
2022/06/16 02:46:25;;;;;;;10.50;8.43;;;;;;;-146.19;100.00;58918.88;5021108;28;20069;-49
2022/06/16 02:49:01;;;;;;;10.73;8.10;;;;;;;-146.19;100.00;58918.88;5019719;28;20057;-47
2022/06/16 02:51:37;;;;;;;9.98;8.25;;;;;;;-146.19;100.00;58918.88;5021793;28;20652;-48
2022/06/16 02:54:12;;;;;;;;;;;;;;;-146.19;100.00;58918.88;5024391;28;20502;-44
2022/06/16 02:56:47;;;;;;;13.18;9.98;;;;;;;-146.19;100.00;58918.88;5017876;28;20003;-46
2022/06/16 02:59:18;;;;;;;12.77;10.65;;;;;;;-146.19;100.00;58918.88;5022456;28;20484;-46
2022/06/16 03:01:49;;;;;;;12.32;10.95;;;;;;;-146.19;100.00;58918.88;5018405;28;20037;-50
2022/06/16 03:04:19;;;;;;;12.75;10.57;;;;;;;-146.19;100.00;58918.88;5020037;28;20457;-49
2022/06/16 03:06:48;;;;;;;14.32;9.88;;;;;;;-146.19;100.00;58918.88;5020915;28;20066;-47
2022/06/16 03:09:16;;;;;;;11.63;10.43;;;;;;;-146.19;100.00;58918.88;5021595;28;20066;-47
2022/06/16 03:11:45;;;;;;;11.02;9.57;;;;;;;-146.19;100.00;58918.88;5023658;28;20089;-45
2022/06/16 03:14:13;;;;;;;13.45;9.45;;;;;;;-146.19;100.00;58918.88;5018235;28;20084;-43
2022/06/16 03:16:42;;;;;;;14.05;9.52;;;;;;;-146.19;100.00;58918.88;5020379;28;20134;-44
2022/06/16 03:19:12;;;;;;;12.90;9.48;;;;;;;-146.19;100.00;58918.88;5021284;28;20088;-46
2022/06/16 03:21:40;;;;;;;11.38;9.45;;;;;;;-146.19;100.00;58918.88;5021637;28;20076;-43
2022/06/16 03:24:09;;;;;;;12.20;9.35;;;;;;;-146.19;100.00;58918.88;5019910;28;20066;-49
2022/06/16 03:26:37;;;;;;;10.25;9.18;;;;;;;-146.19;100.00;58918.88;5020800;28;20710;-46
2022/06/16 03:29:06;;;;;;;10.35;9.18;;;;;;;-146.19;100.00;58918.88;5023245;28;20088;-47
2022/06/16 03:31:34;;;;;;;11.20;9.18;;;;;;;-146.19;100.00;58918.88;5021291;28;20061;-45
2022/06/16 03:34:03;;;;;;;11.57;8.85;;;;;;;-146.19;100.00;58918.88;5018677;28;20503;-44
2022/06/16 03:36:33;;;;;;;11.70;9.20;;;;;;;-146.19;100.00;58918.88;5021116;28;20076;-43
2022/06/16 03:39:02;;;;;;;;;;;;;;;-146.19;100.00;58918.88;5022907;28;20073;-43
2022/06/16 03:41:31;;;;;;;13.05;9.32;;;;;;;-146.19;100.00;58918.88;5022377;28;19956;-44
2022/06/16 03:44:00;;;;;;;11.05;8.32;;;;;;;-146.19;100.00;58918.88;5020548;28;20060;-49
2022/06/16 03:46:28;;;;;;;14.43;8.68;;;;;;;-146.19;100.00;58918.88;5022683;28;20083;-44
2022/06/16 03:48:57;;;;;;;10.93;8.60;;;;;;;-146.19;100.00;58918.88;5020936;28;20073;-45
2022/06/16 03:51:25;;;;;;;10.45;8.68;;;;;;;-146.19;100.00;58918.88;5015882;28;20540;-46
2022/06/16 03:53:55;;;;;;;10.70;7.78;;;;;;;-146.19;100.00;58918.88;5033420;28;20072;-44
2022/06/16 03:56:24;;;;;;;9.27;8.18;;;;;;;-146.19;100.00;58918.88;5022920;28;20538;-43
2022/06/16 03:58:53;;;;;;;9.40;7.63;;;;;;;-146.19;100.00;58918.88;5022791;28;20314;-46
2022/06/16 04:01:22;;;;;;;8.82;7.93;;;;;;;-146.19;100.00;58918.88;5022531;28;20076;-47
2022/06/16 04:04:02;;;;;;;9.43;8.13;;;;;;;-146.19;100.00;58918.88;5019404;28;20168;-43
2022/06/16 04:06:32;;;;;;;;;;;;;;;-146.19;100.00;58918.88;5018362;28;20092;-44
2022/06/16 04:09:02;;;;;;;8.18;7.20;;;;;;;-146.19;100.00;58918.88;5021653;28;19960;-50
2022/06/16 04:11:31;;;;;;;8.38;7.43;;;;;;;-146.19;100.00;58918.88;5018679;28;20174;-48
2022/06/16 04:14:02;;;;;;;8.25;6.97;;;;;;;-146.19;100.00;58918.88;5018130;28;20093;-51
2022/06/16 04:16:33;;;;;;;9.85;6.75;;;;;;;-146.19;100.00;58918.88;5020016;28;20045;-43
2022/06/16 04:19:02;;;;;;;8.38;6.78;;;;;;;-146.19;100.00;58918.88;5021645;28;20076;-42
2022/06/16 04:21:30;;;;;;;8.10;6.70;;;;;;;-146.19;100.00;58918.88;5020210;28;20073;-49
2022/06/16 04:23:59;;;;;;;7.82;7.03;;;;;;;-146.19;100.00;58918.88;5014433;28;20057;-43
2022/06/16 04:26:29;;;;;;;8.55;6.65;;;;;;;-146.19;100.00;58918.88;5018430;28;20096;-43
2022/06/16 04:28:57;;;;;;;7.78;6.68;;;;;;;-146.19;100.00;58918.88;5024367;28;20159;-44
2022/06/16 04:31:26;;;;;;;7.07;6.20;;;;;;;-146.19;100.00;58918.88;5019577;28;20080;-47
2022/06/16 04:33:54;;;;;;;7.60;6.13;;;;;;;-146.19;100.00;58918.88;5017877;28;20535;-44
2022/06/16 04:36:23;;;;;;;7.30;6.53;;;;;;;-146.19;100.00;58918.88;5021906;28;20068;-45
2022/06/16 04:38:51;;;;;;;9.20;6.28;;;;;;;-146.19;100.00;58918.88;5025451;28;20093;-48
2022/06/16 04:41:20;;;;;;;7.60;6.05;;;;;;;-146.19;100.00;58918.88;5024210;28;20457;-47
2022/06/16 04:43:50;;;;;;;7.90;6.68;;;;;;;-146.19;100.00;58918.88;5023221;28;20466;-42
2022/06/16 04:46:19;;;;;;;;;;;;;;;-146.19;100.00;58918.88;5023125;28;20449;-41
2022/06/16 04:48:48;;;;;;;9.45;6.82;;;;;;;-146.19;100.00;58918.88;5020355;28;20331;-45
2022/06/16 04:51:17;;;;;;;8.15;6.13;;;;;;;-146.19;100.00;58918.88;5023969;28;20107;-43
2022/06/16 04:53:45;;;;;;;8.20;6.55;;;;;;;-146.19;100.00;58918.88;5025283;28;20088;-43
2022/06/16 04:56:13;;;;;;;9.07;6.43;;;;;;;-146.19;100.00;58918.88;5019286;28;20069;-44
2022/06/16 04:58:42;;;;;;;7.45;6.75;;;;;;;-146.19;100.00;58918.88;5023368;28;20658;-47
2022/06/16 05:01:12;;;;;;;10.15;6.97;;;;;;;-146.19;100.00;58918.88;5021780;28;20065;-47
2022/06/16 05:03:49;;;;;;;6.60;6.00;;;;;;;-146.19;100.00;58918.88;5022815;28;20057;-44
2022/06/16 05:06:18;;;;;;;8.70;6.20;;;;;;;-146.19;100.00;58918.88;5022464;28;20064;-49
2022/06/16 05:08:48;;;;;;;7.13;5.97;;;;;;;-146.19;100.00;58918.88;5024059;28;20093;-43
2022/06/16 05:11:16;;;;;;;;;;;;;;;-146.19;100.00;58918.88;5024122;28;20093;-45
2022/06/16 05:13:44;;;;;;;6.85;6.15;;;;;;;-146.19;100.00;58918.88;5022289;28;19960;-43
2022/06/16 05:16:14;;;;;;;6.85;6.20;;;;;;;-146.19;100.00;58918.88;5026254;28;20641;-46
2022/06/16 05:18:43;;;;;;;7.13;6.35;;;;;;;-146.19;100.00;58918.88;5019471;28;20060;-43
2022/06/16 05:21:14;;;;;;;6.82;6.22;;;;;;;-146.19;100.00;58918.88;5020136;28;20057;-46
2022/06/16 05:23:43;;;;;;;9.75;6.45;;;;;;;-146.19;100.00;58918.88;5025021;28;20081;-48
2022/06/16 05:26:12;;;;;;;7.90;6.15;;;;;;;-146.19;100.00;58918.88;5022395;28;20100;-43
2022/06/16 05:28:40;;;;;;;7.60;6.10;;;;;;;-146.19;100.00;58918.88;5027655;28;20068;-49
2022/06/16 05:31:09;;;;;;;9.43;6.22;;;;;;;-146.19;100.00;58918.88;5025511;28;20070;-45
2022/06/16 05:33:38;;;;;;;6.57;5.53;;;;;;;-146.19;100.00;58918.88;5021361;28;20072;-44
2022/06/16 05:36:09;;;;;;;6.72;6.13;;;;;;;-146.19;100.00;58918.88;5022610;28;20076;-46
2022/06/16 05:38:40;;;;;;;9.40;6.35;;;;;;;-146.19;100.00;58918.88;5025606;28;20103;-45
2022/06/16 05:41:10;;;;;;;;;;;;;;;-146.19;100.00;58918.88;5022431;28;20384;-50
2022/06/16 05:43:38;;;;;;;8.35;6.35;;;;;;;-146.19;100.00;58918.88;5023772;28;19975;-43
2022/06/16 05:46:09;;;;;;;6.45;5.80;;;;;;;-146.19;100.00;58918.88;5020780;28;20072;-49
2022/06/16 05:48:43;;;;;;;8.70;6.15;;;;;;;-146.19;100.00;58918.88;5022919;28;20536;-47
2022/06/16 05:51:15;;;;;;;8.70;6.63;;;;;;;-146.19;100.00;58918.88;5016891;28;20065;-45
2022/06/16 05:53:44;;;;;;;8.63;6.43;;;;;;;-146.19;100.00;58918.88;5019482;28;20073;-49
2022/06/16 05:56:13;;;;;;;7.50;6.20;;;;;;;-146.19;100.00;58918.88;5022895;28;20073;-45
2022/06/16 05:58:42;;;;;;;7.55;6.68;;;;;;;-146.19;100.00;58918.88;5020547;28;20488;-45
2022/06/16 06:01:11;;;;;;;6.85;6.00;;;;;;;-146.19;100.00;58918.88;5023243;28;20124;-47
2022/06/16 06:03:40;;;;;;;6.78;6.00;;;;;;;-146.19;100.00;58918.88;5018388;28;20065;-50
2022/06/16 06:06:10;;;;;;;7.82;5.85;;;;;;;-146.19;100.00;58918.88;5023982;28;20064;-47
2022/06/16 06:17:04;;;;;;;8.30;5.60;;;;;;;-146.19;100.00;58918.88;5023646;28;20058;-47
2022/06/16 06:19:32;;;;;;;7.07;5.65;;;;;;;-146.19;100.00;58918.88;5022433;28;20076;-52
2022/06/16 06:22:06;;;;;;;6.35;5.47;;;;;;;-146.19;100.00;58918.88;5024323;28;20538;-44
2022/06/16 06:24:37;;;;;;;7.80;5.30;;;;;;;-146.19;100.00;58918.88;5019156;28;20073;-46
2022/06/16 06:27:10;;;;;;;6.97;5.43;;;;;;;-146.19;100.00;58918.88;5023064;28;20072;-49
2022/06/16 06:29:38;;;;;;;9.40;5.55;;;;;;;-146.19;100.00;58918.88;5022849;28;20074;-46
2022/06/16 06:32:08;;;;;;;7.57;5.20;;;;;;;-146.19;100.00;58918.88;5021979;28;20575;-45
2022/06/16 06:34:37;;;;;;;8.38;4.93;;;;;;;-146.19;100.00;58918.88;5022288;28;20496;-48
2022/06/16 06:37:26;;;;;;;6.72;5.63;;;;;;;-146.19;100.00;58918.88;5018287;28;20075;-50
2022/06/16 06:39:55;;;;;;;9.63;5.13;;;;;;;-146.19;100.00;58918.88;5020492;28;20460;-50
2022/06/16 06:42:23;;;;;;;11.23;5.35;;;;;;;-146.19;100.00;58918.88;5022039;28;20068;-45
2022/06/16 06:44:52;;;;;;;7.50;5.22;;;;;;;-146.19;100.00;58918.88;5023485;28;20085;-48
2022/06/16 06:47:23;;;;;;;5.55;5.00;;;;;;;-146.19;100.00;58918.88;5018545;28;20111;-48
2022/06/16 06:49:52;;;;;;;9.70;5.47;;;;;;;-146.19;100.00;58918.88;5019529;28;20594;-47
2022/06/16 06:52:20;;;;;;;8.45;4.85;;;;;;;-146.19;100.00;58918.88;5021500;28;20145;-44
2022/06/16 06:54:50;;;;;;;6.30;4.93;;;;;;;-146.19;100.00;58918.88;5022482;28;20076;-44
2022/06/16 06:57:24;;;;;;;6.57;4.80;;;;;;;-146.19;100.00;58918.88;5023795;28;20061;-45
2022/06/16 06:59:54;;;;;;;13.32;5.30;;;;;;;-146.19;100.00;58918.88;5018536;28;20921;-42
2022/06/16 07:02:22;;;;;;;9.47;5.60;;;;;;;-146.19;100.00;58918.88;5019748;28;20081;-45
2022/06/16 07:04:52;;;;;;;6.45;5.28;;;;;;;-146.19;100.00;58918.88;5016457;28;20073;-45
2022/06/16 07:07:22;;;;;;;10.80;5.47;;;;;;;-146.19;100.00;58918.88;5019976;28;20065;-49
2022/06/16 07:09:52;;;;;;;9.10;5.55;;;;;;;-146.19;100.00;58918.88;5018388;28;20508;-44
2022/06/16 07:12:21;;;;;;;11.07;5.30;;;;;;;-146.19;100.00;58918.88;5021420;28;20068;-42
2022/06/16 07:14:51;;;;;;;7.10;5.68;;;;;;;-146.19;100.00;58918.88;5014383;28;20092;-45
2022/06/16 07:17:22;;;;;;;9.70;5.07;;;;;;;-146.19;100.00;58918.88;5017775;28;20700;-45
2022/06/16 07:19:51;;;;;;;8.65;5.43;;;;;;;-146.19;100.00;58918.88;5015660;28;20069;-48
2022/06/16 07:22:19;;;;;;;9.75;6.15;;;;;;;-146.19;100.00;58918.88;5021236;28;20556;-43
2022/06/16 07:24:48;;;;;;;12.57;5.80;;;;;;;-146.19;100.00;58918.88;5021622;28;20069;-45
2022/06/16 07:27:20;;;;;;;8.90;5.38;;;;;;;-146.19;100.00;58918.88;5017946;28;20049;-47
2022/06/16 07:29:49;;;;;;;9.38;5.60;;;;;;;-146.19;100.00;58918.88;5025127;28;20084;-43
2022/06/16 07:32:20;;;;;;;10.15;5.57;;;;;;;-146.19;100.00;58918.88;5017825;28;20081;-49
2022/06/16 07:35:07;;;;;;;;;;;;;;;-146.19;100.00;58918.88;5021082;28;20065;-44
2022/06/16 07:37:36;;;;;;;7.97;5.03;;;;;;;-146.19;100.00;58918.88;5024597;28;19963;-48
2022/06/16 07:40:05;;;;;;;6.97;5.22;;;;;;;-146.19;100.00;58918.88;5015767;28;20061;-43
2022/06/16 07:42:35;;;;;;;7.53;5.40;;;;;;;-146.19;100.00;58918.88;5021070;28;20057;-44
2022/06/16 07:45:05;;;;;;;11.02;5.70;;;;;;;-146.19;100.00;58918.88;5022037;28;20432;-45
2022/06/16 07:47:33;;;;;;;7.32;5.55;;;;;;;-146.19;100.00;58918.88;5015937;28;20080;-45
2022/06/16 07:50:04;;;;;;;9.95;5.60;;;;;;;-146.19;100.00;58918.88;4999884;28;20069;-45
2022/06/16 07:52:33;;;;;;;7.20;5.40;;;;;;;-146.19;100.00;58918.88;5015529;28;20068;-48
2022/06/16 07:55:01;;;;;;;8.43;5.50;;;;;;;-146.19;100.00;58918.88;5018707;28;20054;-44
2022/06/16 07:57:32;;;;;;;9.43;5.50;;;;;;;-146.19;100.00;58918.88;5023180;28;20065;-43
2022/06/16 08:00:05;;;;;;;11.57;5.43;;;;;;;-146.19;100.00;58918.88;5024204;28;20065;-47
2022/06/16 08:02:33;;;;;;;8.82;5.38;;;;;;;-146.19;100.00;58918.88;5038871;28;20061;-46
2022/06/16 08:05:02;;;;;;;10.93;5.40;;;;;;;-146.19;100.00;58918.88;5023901;28;20065;-44
2022/06/16 08:07:30;;;;;;;10.90;5.70;;;;;;;-146.19;100.00;58918.88;5024078;28;20057;-46
2022/06/16 08:09:59;;;;;;;10.25;6.10;;;;;;;-146.19;100.00;58918.88;5036692;28;20068;-44
2022/06/16 08:12:27;;;;;;;9.05;5.50;;;;;;;-146.19;100.00;58918.88;5029746;28;20076;-45
2022/06/16 08:14:56;;;;;;;11.60;5.72;;;;;;;-146.19;100.00;58918.88;5028199;28;20061;-46
2022/06/16 08:17:28;;;;;;;8.57;5.95;;;;;;;-146.19;100.00;58918.88;5028206;28;20065;-50
2022/06/16 08:19:57;;;;;;;7.85;5.72;;;;;;;-146.19;100.00;58918.88;5022146;28;20080;-46
2022/06/16 08:22:27;;;;;;;9.65;6.20;;;;;;;-146.19;100.00;58918.88;5024054;28;20061;-47
2022/06/16 08:24:55;;;;;;;8.00;5.85;;;;;;;-146.19;100.00;58918.88;5024066;28;20058;-46
2022/06/16 08:27:28;;;;;;;7.30;5.72;;;;;;;-146.19;100.00;58918.88;5021640;28;20076;-52
2022/06/16 08:29:57;;;;;;;8.77;6.13;;;;;;;-146.19;100.00;58918.88;5021967;28;20083;-49
2022/06/16 08:32:26;;;;;;;10.45;6.13;;;;;;;-146.19;100.00;58918.88;5021825;28;20699;-48
2022/06/16 08:34:55;;;;;;;;;;;;;;;-146.19;100.00;58918.88;5023127;28;20068;-50
2022/06/16 08:37:24;;;;;;;10.82;6.15;;;;;;;-146.19;100.00;58918.88;5024042;28;19974;-51
2022/06/16 08:39:52;;;;;;;7.22;5.13;;;;;;;-146.19;100.00;58918.88;5019493;28;20508;-46
2022/06/16 08:42:24;;;;;;;8.13;5.10;;;;;;;-146.19;100.00;58918.88;5027083;28;20060;-45
2022/06/16 08:45:00;;;;;;;6.45;5.30;;;;;;;-146.19;100.00;58918.88;5020744;28;20072;-48
2022/06/16 08:47:37;;;;;;;7.40;5.50;;;;;;;-146.19;100.00;58918.88;5024569;28;20113;-45
2022/06/16 08:50:13;;;;;;;7.78;5.65;;;;;;;-146.19;100.00;58918.88;5004227;28;20559;-49
2022/06/16 08:52:49;;;;;;;8.85;5.90;;;;;;;-146.19;100.00;58918.88;5020751;28;20076;-47
2022/06/16 08:55:21;;;;;;;9.55;5.88;;;;;;;-146.19;100.00;58918.88;5025315;28;20065;-51
2022/06/16 08:57:57;;;;;;;9.35;6.28;;;;;;;-146.19;100.00;58918.88;5021604;28;20088;-50
2022/06/16 09:00:31;;;;;;;8.38;5.68;;;;;;;-146.19;100.00;58918.88;5021235;28;20085;-43
2022/06/16 09:03:08;;;;;;;7.03;5.30;;;;;;;-146.19;100.00;58918.88;5024900;28;20546;-49
2022/06/16 09:05:47;;;;;;;13.98;5.90;;;;;;;-146.19;100.00;58918.88;5022115;28;20078;-47
2022/06/16 09:08:26;;;;;;;7.37;5.60;;;;;;;-146.19;100.00;58918.88;5026118;28;20518;-45
2022/06/16 09:11:00;;;;;;;7.63;5.15;;;;;;;-146.19;100.00;58918.88;5016351;28;20057;-49
2022/06/16 09:14:00;;;;;;;8.57;5.53;;;;;;;-146.19;100.00;58918.88;5018831;28;20061;-48
2022/06/16 09:16:33;;;;;;;13.55;5.72;;;;;;;-146.19;100.00;58918.88;5021339;28;20068;-44
2022/06/16 09:19:11;;;;;;;8.05;5.80;;;;;;;-146.19;100.00;58918.88;5025048;28;20069;-47
2022/06/16 09:21:44;;;;;;;8.48;6.05;;;;;;;-146.19;100.00;58918.88;5020591;28;20184;-49
2022/06/16 09:24:25;;;;;;;9.25;6.28;;;;;;;-146.19;100.00;58918.88;5026763;28;20053;-47
2022/06/16 09:26:58;;;;;;;7.32;5.93;;;;;;;-146.19;100.00;58918.88;5016520;28;20073;-44
2022/06/16 09:29:31;;;;;;;9.50;6.28;;;;;;;-146.19;100.00;58918.88;5023391;28;20089;-44
2022/06/16 09:32:03;;;;;;;8.82;6.07;;;;;;;-146.19;100.00;58918.88;5020398;28;20076;-45
2022/06/16 09:34:39;;;;;;;7.68;5.60;;;;;;;-146.19;100.00;58918.88;5024443;28;20068;-48
2022/06/16 09:37:11;;;;;;;9.15;5.75;;;;;;;-146.19;100.00;58918.88;5026447;28;20067;-47
2022/06/16 09:39:42;;;;;;;8.55;6.18;;;;;;;-146.19;100.00;58918.88;5020514;28;20069;-45
2022/06/16 09:42:35;;;;;;;9.60;6.30;;;;;;;-146.19;100.00;58918.88;5020080;28;20735;-47
2022/06/16 09:45:24;;;;;;;6.25;5.60;;;;;;;-146.19;100.00;58918.88;5022798;28;20072;-45
2022/06/16 09:48:04;;;;;;;11.88;6.18;;;;;;;-146.19;100.00;58918.88;5025109;28;20524;-44
2022/06/16 09:50:39;;;;;;;6.43;5.82;;;;;;;-146.19;100.00;58918.88;5020769;28;20081;-45
2022/06/16 09:53:12;;;;;;;11.95;6.18;;;;;;;-146.19;100.00;58918.88;5016792;28;20073;-46
2022/06/16 09:55:46;;;;;;;7.40;5.90;;;;;;;-146.19;100.00;58918.88;5018447;28;20111;-43
2022/06/16 09:58:19;;;;;;;9.55;6.13;;;;;;;-146.19;100.00;58918.88;5020409;28;20065;-44
2022/06/16 10:00:48;;;;;;;10.20;6.07;;;;;;;-146.19;100.00;58918.88;5023149;28;20413;-53
2022/06/16 10:03:24;;;;;;;9.30;6.22;;;;;;;-146.19;100.00;58918.88;5024614;28;20096;-46
2022/06/16 10:06:08;;;;;;;6.75;5.60;;;;;;;-146.19;100.00;58918.88;5023280;28;20077;-48
2022/06/16 10:08:44;;;;;;;11.93;6.55;;;;;;;-146.19;100.00;58918.88;5019258;28;20085;-45
2022/06/16 10:11:16;;;;;;;8.55;6.47;;;;;;;-146.19;100.00;58918.88;5015875;28;20061;-48
2022/06/16 10:13:50;;;;;;;8.45;5.65;;;;;;;-146.19;100.00;58918.88;5018251;28;20077;-48
2022/06/16 10:16:20;;;;;;;10.18;6.15;;;;;;;-146.19;100.00;58918.88;5019736;28;20061;-46
2022/06/16 10:18:50;;;;;;;8.35;5.75;;;;;;;-146.19;100.00;58918.88;5025100;28;20526;-45
2022/06/16 10:21:21;;;;;;;7.88;6.20;;;;;;;-146.19;100.00;58918.88;5020397;28;20105;-47
2022/06/16 10:23:53;;;;;;;8.43;6.30;;;;;;;-146.19;100.00;58918.88;5023941;28;20107;-51
2022/06/16 10:26:21;;;;;;;7.32;5.93;;;;;;;-146.19;100.00;58918.88;5037336;28;20064;-49
2022/06/16 10:29:03;;;;;;;8.73;6.10;;;;;;;-146.19;100.00;58918.88;5022919;28;20112;-49
2022/06/16 10:31:38;;;;;;;8.32;6.32;;;;;;;-146.19;100.00;58918.88;5021089;28;20512;-50
2022/06/16 10:34:17;;;;;;;11.23;5.90;;;;;;;-146.19;100.00;58918.88;5022948;28;20077;-50
2022/06/16 10:36:51;;;;;;;7.72;6.03;;;;;;;-146.19;100.00;58918.88;5021948;28;20068;-46
2022/06/16 10:39:23;;;;;;;7.90;6.18;;;;;;;-146.19;100.00;58918.88;5020917;28;20057;-48
2022/06/16 10:41:53;;;;;;;9.57;6.40;;;;;;;-146.19;100.00;58918.88;5021791;28;20444;-50
2022/06/16 10:44:24;;;;;;;8.65;6.13;;;;;;;-146.19;100.00;58918.88;5023959;28;20089;-49
2022/06/16 10:46:56;;;;;;;9.57;6.15;;;;;;;-146.19;100.00;58918.88;5022701;28;20061;-48
2022/06/16 10:49:27;;;;;;;6.65;5.72;;;;;;;-146.19;100.00;58918.88;5021520;28;20072;-50
2022/06/16 10:52:09;;;;;;;7.05;5.97;;;;;;;-146.19;100.00;58918.88;5022802;28;20068;-52
2022/06/16 10:54:44;;;;;;;7.95;6.03;;;;;;;-146.19;100.00;58918.88;5026122;28;20061;-47
2022/06/16 10:57:18;;;;;;;9.18;5.90;;;;;;;-146.19;100.00;58918.88;5020428;28;20535;-48
2022/06/16 10:59:49;;;;;;;9.73;5.43;;;;;;;-146.19;100.00;58918.88;5023754;28;20106;-47
2022/06/16 11:02:22;;;;;;;10.30;5.80;;;;;;;-146.19;100.00;58918.88;5023071;28;20464;-48
2022/06/16 11:04:56;;;;;;;9.05;5.10;;;;;;;-146.19;100.00;58918.88;5019512;28;20348;-51
2022/06/16 11:10:09;;;;;;;6.30;5.70;;;;;;;31.14;87.75;96455.75;4981434;27;20639;-46
2022/06/16 11:12:40;;;;;;;6.97;5.57;;;;;;;31.54;82.12;96459.44;4931710;28;20069;-51
2022/06/16 11:15:24;;;;;;;8.35;6.13;;;;;;;31.76;64.20;96458.25;5003281;28;20065;-53
2022/06/16 11:17:56;;;;;;;8.18;6.15;;;;;;;32.03;67.91;96452.41;5002616;28;20119;-48
2022/06/16 11:20:32;;;;;;;8.02;5.85;;;;;;;31.41;86.85;96454.56;5000593;28;20085;-49
2022/06/16 11:23:00;;;;;;;7.13;5.43;;;;;;;30.89;67.94;96458.50;5001977;28;20069;-51
2022/06/16 11:25:34;;;;;;;6.20;5.03;;;;;;;30.77;77.13;96452.53;5004832;28;20061;-47
2022/06/16 11:28:14;;;;;;;8.05;5.50;;;;;;;30.55;78.14;96456.28;5003210;28;20073;-48
2022/06/16 11:30:44;;;;;;;7.88;5.40;;;;;;;30.87;85.89;96460.69;5001815;28;20450;-46
2022/06/16 11:34:06;;;;;;;6.75;5.97;;;;;;;30.46;90.20;96456.03;5003572;28;20073;-46
2022/06/16 11:36:18;;;;;;;7.00;5.90;;;;;;;30.20;96.62;96462.53;5001969;28;20061;-54
2022/06/16 11:38:52;;;;;;;7.53;6.25;;;;;;;30.16;88.46;96455.97;4996979;28;20058;-46
2022/06/16 11:41:23;;;;;;;10.88;6.13;;;;;;;30.34;96.55;96466.34;5004246;28;20085;-48
2022/06/16 11:44:13;;;;;;;7.35;6.13;;;;;;;30.44;94.38;96458.19;5002842;28;20080;-48
2022/06/16 11:46:48;;;;;;;10.23;6.03;;;;;;;30.86;95.81;96459.84;5002089;28;20076;-51
2022/06/16 11:49:26;;;;;;;8.18;6.30;;;;;;;30.69;77.06;96456.56;5001625;28;20477;-52